createdAt,value
2022-07-28T00:01:11.445Z,13.90
2022-07-28T00:03:40.654Z,13.88
2022-07-28T00:06:08.496Z,13.85
2022-07-28T00:08:36.294Z,13.80
2022-07-28T00:11:04.155Z,13.77
2022-07-28T00:13:32.017Z,13.75
2022-07-28T00:15:59.904Z,13.70
2022-07-28T00:18:27.733Z,13.65
2022-07-28T00:20:58.110Z,13.61
2022-07-28T00:23:38.704Z,13.57
2022-07-28T00:26:08.673Z,13.54
2022-07-28T00:28:36.724Z,13.50
2022-07-28T00:31:04.997Z,13.47
2022-07-28T00:33:35.618Z,13.43
2022-07-28T00:36:05.581Z,13.38
2022-07-28T00:38:34.369Z,13.34
2022-07-28T00:41:12.536Z,13.29
2022-07-28T00:43:41.089Z,13.23
2022-07-28T00:46:09.957Z,13.20
2022-07-28T00:48:39.264Z,13.13
2022-07-28T00:51:10.419Z,13.10
2022-07-28T00:53:38.652Z,13.03
2022-07-28T00:56:07.556Z,12.99
2022-07-28T00:58:36.237Z,12.95
2022-07-28T01:01:04.803Z,12.88
2022-07-28T01:03:33.740Z,12.84
2022-07-28T01:06:11.334Z,12.80
2022-07-28T01:08:53.656Z,12.73
2022-07-28T01:11:30.962Z,12.69
2022-07-28T01:14:07.564Z,12.65
2022-07-28T01:16:41.557Z,12.60
2022-07-28T01:19:18.849Z,12.57
2022-07-28T01:21:49.805Z,12.52
2022-07-28T01:24:25.633Z,12.48
2022-07-28T01:26:59.326Z,12.47
2022-07-28T01:29:42.768Z,12.42
2022-07-28T01:32:17.435Z,12.41
2022-07-28T01:34:51.567Z,12.38
2022-07-28T01:37:21.569Z,12.33
2022-07-28T01:39:53.422Z,12.30
2022-07-28T01:42:24.005Z,12.26
2022-07-28T01:44:55.085Z,12.25
2022-07-28T01:47:26.324Z,12.22
2022-07-28T01:49:56.583Z,12.19
2022-07-28T01:52:26.118Z,12.16
2022-07-28T01:54:55.934Z,12.13
2022-07-28T01:57:26.346Z,12.12
2022-07-28T01:59:56.059Z,12.10
2022-07-28T02:02:28.096Z,12.09
2022-07-28T02:04:58.498Z,12.07
2022-07-28T02:07:28.588Z,12.03
2022-07-28T02:09:58.739Z,12.01
2022-07-28T02:12:28.860Z,11.99
2022-07-28T02:14:59.477Z,11.95
2022-07-28T02:17:34.009Z,11.91
2022-07-28T02:20:02.652Z,11.90
2022-07-28T02:22:31.891Z,11.89
2022-07-28T02:24:59.834Z,11.90
2022-07-28T02:27:35.445Z,11.89
2022-07-28T02:30:08.388Z,11.88
2022-07-28T02:32:42.187Z,11.87
2022-07-28T02:35:21.627Z,11.85
2022-07-28T02:37:55.412Z,11.85
2022-07-28T02:40:23.633Z,11.81
2022-07-28T02:42:54.089Z,11.77
2022-07-28T02:45:26.468Z,11.73
2022-07-28T02:47:59.706Z,11.68
2022-07-28T02:50:29.595Z,11.62
2022-07-28T02:53:02.036Z,11.50
2022-07-28T02:55:44.449Z,11.43
2022-07-28T02:58:13.269Z,11.37
2022-07-28T03:00:41.765Z,11.35
2022-07-28T03:03:11.771Z,11.34
2022-07-28T03:05:41.469Z,11.26
2022-07-28T03:08:09.646Z,11.22
2022-07-28T03:10:37.930Z,11.16
2022-07-28T03:13:07.867Z,11.10
2022-07-28T03:15:37.659Z,11.03
2022-07-28T03:18:06.769Z,10.99
2022-07-28T03:20:36.425Z,10.96
2022-07-28T03:23:04.363Z,10.91
2022-07-28T03:25:40.472Z,10.86
2022-07-28T03:28:14.089Z,10.83
2022-07-28T03:30:44.132Z,10.79
2022-07-28T03:33:12.836Z,10.76
2022-07-28T03:35:48.180Z,10.76
2022-07-28T03:38:21.651Z,10.74
2022-07-28T03:40:50.474Z,10.73
2022-07-28T03:43:20.954Z,10.70
2022-07-28T03:45:49.157Z,10.69
2022-07-28T03:48:17.444Z,10.65
2022-07-28T03:50:46.601Z,10.61
2022-07-28T03:53:20.881Z,10.60
2022-07-28T03:55:51.228Z,10.59
2022-07-28T03:58:19.368Z,10.59
2022-07-28T04:00:48.028Z,10.60
2022-07-28T04:03:36.408Z,10.61
2022-07-28T04:06:05.769Z,10.61
2022-07-28T04:08:33.608Z,10.61
2022-07-28T04:11:01.449Z,10.61
2022-07-28T04:13:29.259Z,10.62
2022-07-28T04:15:57.344Z,10.64
2022-07-28T04:18:25.223Z,10.66
2022-07-28T04:20:53.045Z,10.68
2022-07-28T04:23:22.498Z,10.69
2022-07-28T04:25:50.311Z,10.73
2022-07-28T04:28:18.132Z,10.76
2022-07-28T04:30:46.208Z,10.82
2022-07-28T04:33:14.409Z,10.87
2022-07-28T04:35:42.380Z,10.92
2022-07-28T04:38:12.168Z,10.96
2022-07-28T04:40:42.203Z,11.03
2022-07-28T04:43:10.337Z,11.10
2022-07-28T04:45:38.765Z,11.17
2022-07-28T04:48:14.303Z,11.24
2022-07-28T04:50:46.442Z,11.29
2022-07-28T04:53:14.273Z,11.36
2022-07-28T04:55:43.480Z,11.44
2022-07-28T04:58:12.555Z,11.53
2022-07-28T05:00:40.591Z,11.64
2022-07-28T05:03:08.407Z,11.73
2022-07-28T05:05:36.244Z,11.81
2022-07-28T05:08:04.178Z,11.90
2022-07-28T05:10:32.096Z,12.00
2022-07-28T05:13:05.913Z,12.08
2022-07-28T05:15:34.039Z,12.19
2022-07-28T05:18:02.192Z,12.27
2022-07-28T05:20:30.119Z,12.37
2022-07-28T05:22:58.451Z,12.46
2022-07-28T05:25:26.978Z,12.59
2022-07-28T05:27:55.809Z,12.69
2022-07-28T05:30:25.319Z,12.83
2022-07-28T05:32:59.206Z,12.94
2022-07-28T05:35:27.303Z,13.07
2022-07-28T05:37:55.096Z,13.20
2022-07-28T05:40:22.950Z,13.29
2022-07-28T05:42:50.819Z,13.41
2022-07-28T05:45:18.659Z,13.48
2022-07-28T05:47:49.587Z,13.58
2022-07-28T05:50:18.813Z,13.67
2022-07-28T05:52:47.012Z,13.77
2022-07-28T05:55:15.363Z,13.87
2022-07-28T05:57:43.193Z,13.96
2022-07-28T06:00:13.531Z,14.07
2022-07-28T06:02:41.549Z,14.16
2022-07-28T06:05:11.392Z,14.26
2022-07-28T06:07:42.756Z,14.35
2022-07-28T06:10:13.604Z,14.44
2022-07-28T06:12:42.233Z,14.53
2022-07-28T06:15:14.262Z,14.62
2022-07-28T06:17:42.419Z,14.68
2022-07-28T06:20:12.924Z,14.75
2022-07-28T06:22:45.012Z,14.82
2022-07-28T06:25:15.129Z,14.90
2022-07-28T06:27:43.364Z,14.95
2022-07-28T06:30:11.954Z,15.03
2022-07-28T06:32:39.905Z,15.10
2022-07-28T06:35:09.099Z,15.16
2022-07-28T06:37:38.263Z,15.23
2022-07-28T06:40:07.472Z,15.30
2022-07-28T06:42:35.332Z,15.37
2022-07-28T06:45:03.243Z,15.43
2022-07-28T06:47:31.049Z,15.49
2022-07-28T06:49:59.129Z,15.56
2022-07-28T06:52:27.316Z,15.62
2022-07-28T06:54:58.303Z,15.70
2022-07-28T06:57:33.445Z,15.78
2022-07-28T07:00:04.001Z,15.84
2022-07-28T07:02:31.852Z,15.90
2022-07-28T07:04:59.884Z,15.95
2022-07-28T07:07:27.714Z,16.01
2022-07-28T07:09:56.903Z,16.06
2022-07-28T07:12:24.821Z,16.07
2022-07-28T07:14:52.808Z,16.12
2022-07-28T07:17:20.762Z,16.15
2022-07-28T07:19:48.580Z,16.24
2022-07-28T07:22:17.068Z,16.33
2022-07-28T07:24:45.076Z,16.38
2022-07-28T07:27:15.077Z,16.39
2022-07-28T07:29:42.906Z,16.44
2022-07-28T07:32:11.188Z,16.51
2022-07-28T07:34:40.463Z,16.56
2022-07-28T07:37:13.619Z,16.57
2022-07-28T07:39:42.402Z,16.57
2022-07-28T07:42:10.533Z,16.66
2022-07-28T07:44:39.705Z,16.80
2022-07-28T07:47:09.856Z,16.91
2022-07-28T07:49:45.639Z,16.99
2022-07-28T07:52:14.318Z,17.08
2022-07-28T07:54:42.416Z,17.20
2022-07-28T07:57:10.339Z,17.32
2022-07-28T07:59:39.553Z,17.38
2022-07-28T08:02:07.845Z,17.49
2022-07-28T08:04:37.579Z,17.55
2022-07-28T08:07:06.713Z,17.69
2022-07-28T08:09:34.855Z,17.87
2022-07-28T08:12:03.134Z,18.06
2022-07-28T08:14:30.984Z,18.24
2022-07-28T08:17:00.361Z,18.40
2022-07-28T08:19:28.223Z,18.52
2022-07-28T08:21:56.454Z,18.67
2022-07-28T08:24:32.292Z,18.79
2022-07-28T08:27:01.009Z,18.91
2022-07-28T08:29:28.846Z,19.04
2022-07-28T08:31:56.711Z,19.14
2022-07-28T08:34:32.851Z,19.25
2022-07-28T08:37:02.866Z,19.38
2022-07-28T08:39:31.294Z,19.56
2022-07-28T08:42:03.346Z,19.72
2022-07-28T08:44:39.026Z,19.89
2022-07-28T08:47:11.055Z,20.03
2022-07-28T08:49:43.395Z,20.10
2022-07-28T08:52:13.189Z,20.05
2022-07-28T08:54:44.821Z,20.14
2022-07-28T08:57:23.521Z,20.27
2022-07-28T08:59:53.463Z,20.44
2022-07-28T09:02:22.528Z,20.61
2022-07-28T09:04:52.394Z,20.71
2022-07-28T09:07:20.856Z,20.77
2022-07-28T09:09:49.769Z,20.88
2022-07-28T09:12:18.079Z,21.03
2022-07-28T09:14:47.047Z,21.07
2022-07-28T09:17:15.065Z,21.09
2022-07-28T09:19:43.112Z,21.20
2022-07-28T09:22:13.366Z,21.34
2022-07-28T09:24:44.578Z,21.48
2022-07-28T09:27:13.766Z,21.48
2022-07-28T09:29:45.525Z,21.59
2022-07-28T09:32:15.228Z,21.77
2022-07-28T09:34:44.173Z,21.89
2022-07-28T09:37:24.770Z,22.02
2022-07-28T09:39:58.180Z,22.14
2022-07-28T09:42:26.914Z,22.10
2022-07-28T09:45:23.016Z,22.04
2022-07-28T09:48:10.054Z,22.21
2022-07-28T09:50:38.725Z,22.39
2022-07-28T09:53:27.282Z,22.56
2022-07-28T09:55:57.805Z,22.72
2022-07-28T09:58:26.780Z,22.85
2022-07-28T10:01:16.244Z,22.95
2022-07-28T10:03:49.734Z,22.95
2022-07-28T10:06:24.671Z,23.04
2022-07-28T10:08:54.926Z,23.07
2022-07-28T10:11:26.836Z,23.08
2022-07-28T10:13:57.014Z,23.21
2022-07-28T10:16:26.639Z,23.29
2022-07-28T10:18:54.966Z,23.42
2022-07-28T10:21:25.337Z,23.43
2022-07-28T10:23:56.759Z,23.56
2022-07-28T10:26:29.157Z,23.69
2022-07-28T10:28:57.713Z,23.81
2022-07-28T10:31:33.915Z,23.95
2022-07-28T10:34:03.611Z,24.14
2022-07-28T10:36:33.539Z,24.25
2022-07-28T10:39:13.096Z,24.09
2022-07-28T10:41:42.532Z,24.21
2022-07-28T10:44:14.502Z,24.42
2022-07-28T10:46:44.789Z,24.67
2022-07-28T10:49:14.926Z,24.96
2022-07-28T10:52:02.509Z,25.05
2022-07-28T10:54:37.592Z,25.10
2022-07-28T10:57:12.827Z,25.03
2022-07-28T11:00:12.899Z,25.02
2022-07-28T11:02:50.372Z,25.06
2022-07-28T11:05:32.557Z,25.27
2022-07-28T11:08:02.187Z,25.49
2022-07-28T11:10:43.271Z,25.68
2022-07-28T11:13:24.723Z,25.79
2022-07-28T11:15:58.543Z,26.02
2022-07-28T11:18:29.096Z,26.28
2022-07-28T11:21:16.571Z,26.45
2022-07-28T11:23:48.241Z,26.64
2022-07-28T11:26:38.633Z,26.76
2022-07-28T11:29:16.387Z,26.75
2022-07-28T11:32:04.499Z,26.78
2022-07-28T11:35:08.677Z,26.64
2022-07-28T11:38:08.998Z,26.58
2022-07-28T11:40:39.017Z,26.35
2022-07-28T11:43:36.525Z,25.99
2022-07-28T11:46:37.554Z,26.21
2022-07-28T11:49:24.941Z,26.52
2022-07-28T11:52:20.800Z,26.73
2022-07-28T11:54:52.521Z,26.90
2022-07-28T11:57:21.407Z,27.00
2022-07-28T11:59:53.406Z,27.06
2022-07-28T12:02:27.544Z,27.04
2022-07-28T12:04:58.022Z,27.04
2022-07-28T12:07:48.261Z,27.06
2022-07-28T12:10:54.403Z,26.83
2022-07-28T12:13:28.336Z,26.76
2022-07-28T12:15:58.014Z,27.08
2022-07-28T12:18:26.112Z,27.59
2022-07-28T12:20:54.963Z,27.96
2022-07-28T12:23:38.642Z,27.95
2022-07-28T12:26:12.141Z,28.12
2022-07-28T12:28:40.225Z,28.03
2022-07-28T12:31:13.592Z,27.87
2022-07-28T12:33:41.634Z,28.02
2022-07-28T12:36:09.896Z,28.28
2022-07-28T12:38:37.824Z,28.69
2022-07-28T12:41:15.147Z,29.13
2022-07-28T12:43:50.703Z,29.43
2022-07-28T12:46:23.052Z,29.54
2022-07-28T12:48:55.771Z,29.59
2022-07-28T12:51:37.909Z,29.53
2022-07-28T12:54:07.974Z,29.70
2022-07-28T12:56:45.831Z,29.89
2022-07-28T12:59:14.415Z,29.98
2022-07-28T13:01:48.153Z,30.00
2022-07-28T13:04:17.273Z,30.24
2022-07-28T13:06:56.385Z,30.60
2022-07-28T13:09:32.832Z,30.93
2022-07-28T13:12:03.448Z,31.30
2022-07-28T13:14:40.822Z,31.65
2022-07-28T13:17:10.048Z,31.91
2022-07-28T13:19:37.931Z,31.74
2022-07-28T13:22:09.247Z,31.90
2022-07-28T13:24:37.372Z,32.05
2022-07-28T13:27:06.915Z,32.18
2022-07-28T13:29:35.827Z,32.56
2022-07-28T13:32:03.875Z,32.91
2022-07-28T13:34:33.175Z,33.21
2022-07-28T13:37:01.094Z,33.38
2022-07-28T13:39:28.942Z,33.54
2022-07-28T13:41:59.080Z,33.72
2022-07-28T13:44:27.722Z,33.65
2022-07-28T13:46:56.709Z,33.66
2022-07-28T13:49:28.294Z,33.47
2022-07-28T13:51:59.660Z,33.01
2022-07-28T13:54:28.572Z,32.58
2022-07-28T13:56:56.502Z,32.55
2022-07-28T13:59:26.434Z,32.52
2022-07-28T14:01:55.345Z,32.66
2022-07-28T14:04:23.640Z,32.85
2022-07-28T14:06:51.877Z,33.15
2022-07-28T14:09:21.610Z,33.38
2022-07-28T14:11:53.517Z,33.67
2022-07-28T14:14:24.891Z,33.83
2022-07-28T14:16:55.002Z,34.04
2022-07-28T14:19:39.115Z,34.25
2022-07-28T14:22:12.765Z,34.51
2022-07-28T14:24:43.273Z,34.43
2022-07-28T14:27:11.397Z,34.47
2022-07-28T14:29:39.612Z,34.43
2022-07-28T14:32:07.930Z,34.37
2022-07-28T14:34:35.874Z,34.32
2022-07-28T14:37:08.798Z,34.26
2022-07-28T14:39:37.730Z,34.05
2022-07-28T14:42:07.340Z,33.77
2022-07-28T14:44:35.906Z,33.42
2022-07-28T14:47:04.025Z,33.21
2022-07-28T14:49:31.947Z,33.11
2022-07-28T14:52:00.267Z,33.08
2022-07-28T14:54:28.809Z,33.14
2022-07-28T14:56:57.165Z,33.18
2022-07-28T14:59:26.570Z,33.21
2022-07-28T15:01:54.536Z,33.22
2022-07-28T15:04:22.569Z,33.26
2022-07-28T15:06:50.390Z,33.25
2022-07-28T15:09:18.274Z,33.18
2022-07-28T15:11:47.500Z,33.11
2022-07-28T15:14:16.425Z,32.84
2022-07-28T15:16:50.914Z,32.14
2022-07-28T15:19:18.767Z,31.85
2022-07-28T15:21:47.709Z,31.77
2022-07-28T15:24:16.970Z,31.69
2022-07-28T15:26:45.066Z,31.72
2022-07-28T15:29:13.035Z,31.67
2022-07-28T15:31:43.446Z,31.56
2022-07-28T15:34:15.092Z,31.53
2022-07-28T15:36:43.382Z,31.48
2022-07-28T15:39:14.228Z,31.32
2022-07-28T15:41:43.001Z,31.12
2022-07-28T15:44:12.117Z,30.99
2022-07-28T15:46:40.555Z,30.85
2022-07-28T15:49:09.785Z,30.71
2022-07-28T15:51:39.988Z,30.55
2022-07-28T15:54:08.158Z,30.39
2022-07-28T15:56:36.964Z,30.16
2022-07-28T15:59:07.674Z,30.01
2022-07-28T16:01:36.111Z,29.64
2022-07-28T16:04:04.086Z,29.44
2022-07-28T16:06:46.341Z,29.35
2022-07-28T16:09:15.934Z,29.12
2022-07-28T16:11:44.234Z,28.98
2022-07-28T16:14:12.360Z,28.76
2022-07-28T16:16:40.583Z,28.56
2022-07-28T16:19:20.160Z,28.39
2022-07-28T16:21:57.502Z,28.26
2022-07-28T16:24:26.831Z,28.11
2022-07-28T16:26:54.688Z,28.01
2022-07-28T16:29:22.583Z,27.92
2022-07-28T16:31:50.537Z,27.83
2022-07-28T16:34:18.663Z,27.68
2022-07-28T16:36:46.618Z,27.50
2022-07-28T16:39:14.597Z,27.35
2022-07-28T16:41:47.549Z,27.23
2022-07-28T16:44:16.617Z,27.13
2022-07-28T16:46:44.923Z,27.03
2022-07-28T16:49:12.985Z,26.91
2022-07-28T16:51:40.872Z,26.76
2022-07-28T16:54:08.726Z,26.65
2022-07-28T16:56:36.606Z,26.57
2022-07-28T16:59:05.946Z,26.52
2022-07-28T17:01:33.810Z,26.45
2022-07-28T17:04:03.152Z,26.34
2022-07-28T17:06:31.128Z,26.26
2022-07-28T17:08:59.035Z,26.18
2022-07-28T17:11:27.369Z,26.08
2022-07-28T17:13:55.355Z,25.98
2022-07-28T17:16:24.687Z,25.88
2022-07-28T17:18:52.700Z,25.80
2022-07-28T17:21:21.034Z,25.68
2022-07-28T17:23:49.098Z,25.60
2022-07-28T17:27:12.979Z,25.51
2022-07-28T17:29:05.566Z,25.41
2022-07-28T17:31:34.937Z,25.33
2022-07-28T17:34:02.908Z,25.25
2022-07-28T17:36:34.077Z,25.15
2022-07-28T17:39:02.495Z,25.08
2022-07-28T17:41:31.298Z,24.99
2022-07-28T17:43:59.144Z,24.89
2022-07-28T17:46:27.060Z,24.82
2022-07-28T17:48:56.535Z,24.76
2022-07-28T17:51:24.482Z,24.69
2022-07-28T17:53:52.451Z,24.61
2022-07-28T17:56:22.698Z,24.52
2022-07-28T17:58:50.752Z,24.46
2022-07-28T18:01:18.904Z,24.39
2022-07-28T18:03:56.894Z,24.31
2022-07-28T18:06:29.479Z,24.22
2022-07-28T18:08:57.731Z,24.15
2022-07-28T18:11:33.115Z,24.06
2022-07-28T18:14:03.656Z,23.99
2022-07-28T18:16:34.180Z,23.91
2022-07-28T18:19:02.796Z,23.85
2022-07-28T18:21:32.197Z,23.76
2022-07-28T18:24:03.001Z,23.68
2022-07-28T18:26:30.816Z,23.60
2022-07-28T18:28:58.891Z,23.52
2022-07-28T18:31:27.987Z,23.43
2022-07-28T18:33:55.921Z,23.32
2022-07-28T18:36:23.732Z,23.24
2022-07-28T18:38:52.970Z,23.17
2022-07-28T18:41:20.867Z,23.08
2022-07-28T18:43:48.668Z,22.99
2022-07-28T18:46:16.824Z,22.91
2022-07-28T18:48:44.687Z,22.84
2022-07-28T18:51:16.821Z,22.76
2022-07-28T18:53:44.647Z,22.68
2022-07-28T18:56:13.996Z,22.57
2022-07-28T18:58:43.330Z,22.48
2022-07-28T19:01:13.352Z,22.39
2022-07-28T19:03:42.022Z,22.32
2022-07-28T19:06:11.330Z,22.22
2022-07-28T19:08:39.327Z,22.13
2022-07-28T19:11:07.175Z,22.05
2022-07-28T19:13:36.343Z,21.99
2022-07-28T19:16:04.256Z,21.89
2022-07-28T19:18:32.179Z,21.83
2022-07-28T19:21:00.084Z,21.77
2022-07-28T19:23:30.175Z,21.69
2022-07-28T19:25:58.166Z,21.59
2022-07-28T19:28:25.983Z,21.52
2022-07-28T19:30:55.839Z,21.45
2022-07-28T19:33:24.493Z,21.37
2022-07-28T19:35:52.391Z,21.30
2022-07-28T19:38:20.206Z,21.23
2022-07-28T19:40:48.085Z,21.15
2022-07-28T19:43:15.919Z,21.07
2022-07-28T19:45:43.939Z,21.03
2022-07-28T19:48:13.460Z,20.97
2022-07-28T19:50:49.958Z,20.90
2022-07-28T19:53:19.062Z,20.84
2022-07-28T19:55:50.669Z,20.78
2022-07-28T19:58:19.478Z,20.72
2022-07-28T20:00:48.488Z,20.63
2022-07-28T20:04:01.719Z,20.56
2022-07-28T20:06:06.012Z,20.49
2022-07-28T20:08:34.023Z,20.41
2022-07-28T20:11:01.861Z,20.34
2022-07-28T20:13:29.815Z,20.26
2022-07-28T20:15:57.649Z,20.19
2022-07-28T20:18:26.908Z,20.11
2022-07-28T20:20:54.775Z,20.06
2022-07-28T20:23:22.593Z,19.99
2022-07-28T20:25:50.429Z,19.91
2022-07-28T20:28:18.546Z,19.85
2022-07-28T20:30:46.432Z,19.77
2022-07-28T20:33:14.328Z,19.69
2022-07-28T20:35:43.546Z,19.65
2022-07-28T20:38:11.351Z,19.58
2022-07-28T20:40:39.189Z,19.53
2022-07-28T20:43:07.278Z,19.44
2022-07-28T20:45:35.263Z,19.39
2022-07-28T20:48:03.136Z,19.29
2022-07-28T20:50:31.021Z,19.22
2022-07-28T20:53:00.818Z,19.16
2022-07-28T20:55:38.608Z,19.10
2022-07-28T20:58:06.425Z,19.04
2022-07-28T21:00:34.378Z,19.00
2022-07-28T21:03:02.278Z,18.96
2022-07-28T21:05:35.511Z,18.93
2022-07-28T21:08:09.133Z,18.88
2022-07-28T21:10:43.731Z,18.86
2022-07-28T21:13:11.610Z,18.81
2022-07-28T21:15:39.479Z,18.77
2022-07-28T21:18:07.451Z,18.72
2022-07-28T21:20:35.528Z,18.65
2022-07-28T21:23:05.311Z,18.62
2022-07-28T21:25:33.333Z,18.59
2022-07-28T21:28:18.592Z,18.54
2022-07-28T21:30:46.488Z,18.48
2022-07-28T21:33:22.399Z,18.45
2022-07-28T21:35:51.101Z,18.39
2022-07-28T21:38:20.279Z,18.35
2022-07-28T21:40:48.209Z,18.29
2022-07-28T21:43:16.060Z,18.25
2022-07-28T21:45:45.628Z,18.22
2022-07-28T21:48:13.694Z,18.19
2022-07-28T21:50:41.543Z,18.12
2022-07-28T21:53:14.019Z,18.08
2022-07-28T21:55:46.214Z,18.03
2022-07-28T21:58:14.614Z,17.96
2022-07-28T22:00:43.226Z,17.92
2022-07-28T22:03:11.538Z,17.86
2022-07-28T22:05:39.507Z,17.82
2022-07-28T22:08:08.693Z,17.75
2022-07-28T22:10:36.743Z,17.70
2022-07-28T22:13:05.911Z,17.63
2022-07-28T22:15:33.789Z,17.59
2022-07-28T22:18:01.606Z,17.55
2022-07-28T22:20:30.234Z,17.47
2022-07-28T22:22:58.185Z,17.40
2022-07-28T22:25:26.007Z,17.36
2022-07-28T22:27:53.988Z,17.30
2022-07-28T22:30:23.216Z,17.24
2022-07-28T22:32:51.063Z,17.19
2022-07-28T22:35:19.084Z,17.12
2022-07-28T22:37:47.198Z,17.07
2022-07-28T22:40:16.147Z,17.02
2022-07-28T22:42:45.002Z,16.97
2022-07-28T22:45:13.453Z,16.92
2022-07-28T22:47:43.096Z,16.86
2022-07-28T22:50:11.562Z,16.81
2022-07-28T22:52:39.459Z,16.77
2022-07-28T22:55:08.489Z,16.73
2022-07-28T22:57:36.354Z,16.68
2022-07-28T23:00:05.911Z,16.64
2022-07-28T23:02:35.607Z,16.59
2022-07-28T23:05:06.802Z,16.55
2022-07-28T23:07:51.106Z,16.51
2022-07-28T23:10:21.435Z,16.47
2022-07-28T23:12:49.299Z,16.41
2022-07-28T23:15:17.151Z,16.37
2022-07-28T23:17:44.985Z,16.35
2022-07-28T23:20:14.320Z,16.31
2022-07-28T23:22:42.207Z,16.30
2022-07-28T23:25:10.630Z,16.27
2022-07-28T23:27:38.539Z,16.24
2022-07-28T23:30:07.540Z,16.21
2022-07-28T23:32:35.381Z,16.18
2022-07-28T23:35:03.234Z,16.17
2022-07-28T23:37:35.489Z,16.14
2022-07-28T23:40:03.744Z,16.12
2022-07-28T23:42:31.570Z,16.10
2022-07-28T23:44:59.412Z,16.08
2022-07-28T23:47:27.272Z,16.08
2022-07-28T23:49:55.424Z,16.07
2022-07-28T23:52:23.384Z,16.07
2022-07-28T23:54:52.609Z,16.07
2022-07-28T23:57:20.406Z,16.05
2022-07-28T23:59:48.397Z,16.04
